Airfield :







YOU CAN JOIN US ON...

 
LOGIN :

Register | Disclaimer

   EN    FR    IT 

 









Legend :    VFR   Marginal VFR   IFR   Intensive IFR   Very Intensive IFR
Visi :
Ceiling :
>= 8 km
>= 3000ft
5 to 8 km
1000 to 3000 ft
1500m to 5 km
500 to 1000 ft
800 to 1500m
200 to 500 ft
< 800m
< 200 ft
Symbols :   Thunderstorms  Fog  Heavy snow  Heavy precipitations  Wind > 20 kt






- Airport Elevation : 1009 ft
- IATA code : ORH


KORH - Worcester Regional

CURRENT METAR :
  • 221654Z 01005KT 4SM BR OVC007 10/09 A3010 RMK AO2 SLP199 T01000089

EXPIRED METARs :
  • 221554Z 08004KT 10SM OVC006 10/09 A3011 RMK AO2 SLP201 T01000089
  • 221518Z 07009KT 10SM OVC005 09/08 A3011 RMK AO2 CIG 003V008 T00940083
  • 221454Z 06008KT 9SM OVC002 09/08 A3012 RMK AO2 SLP203 T00890083 56014

TAF KORH
Valid from the 22 at 15:00 until the 23 at 12:00 UTC


221510Z 2215/2312 06007KT P6SM OVC003
FM221700 08008KT P6SM SCT005 OVC015
FM222300 08008KT 2SM -DZ BR OVC003
FM230800 33003KT 3/4SM SHRA BR OVC003



MET'MAP, your aeronautical weather chart ! - Copyright ORBIFLY December 2007 - Disclaimer

ORBIFLY MET'MAP TEAM :

Programming & Development : Alexandra Zaïnal
Concept & Development : Baudouin d'Aumeries
Co-Development & Prog : Marc-Olivier Méhu
Technical & hardware support : Manuel Goepfert

Contact : metmap@orbifly.com




SOURCES & CREDITS :

   NOAA